sensor_id;sensor_type;location;lat;lon;timestamp;pressure;altitude;pressure_sealevel;temperature;humidity
57074;BME280;69035;54.392;18.574;2023-04-25T00:01:04;99958.09;;;14.07;75.81
57074;BME280;69035;54.392;18.574;2023-04-25T00:03:33;99962.41;;;14.10;75.25
57074;BME280;69035;54.392;18.574;2023-04-25T00:06:02;99952.28;;;13.98;78.47
57074;BME280;69035;54.392;18.574;2023-04-25T00:08:32;99951.34;;;14.00;76.11
57074;BME280;69035;54.392;18.574;2023-04-25T00:11:01;99952.09;;;14.04;75.72
57074;BME280;69035;54.392;18.574;2023-04-25T00:13:30;99948.50;;;14.05;75.85
57074;BME280;69035;54.392;18.574;2023-04-25T00:15:59;99944.19;;;14.02;76.00
57074;BME280;69035;54.392;18.574;2023-04-25T00:18:28;99947.78;;;14.01;76.17
57074;BME280;69035;54.392;18.574;2023-04-25T00:20:57;99952.19;;;14.01;75.78
57074;BME280;69035;54.392;18.574;2023-04-25T00:23:25;99946.81;;;14.04;76.01
57074;BME280;69035;54.392;18.574;2023-04-25T00:25:56;99950.34;;;14.03;76.31
57074;BME280;69035;54.392;18.574;2023-04-25T00:28:25;99945.06;;;14.03;76.32
57074;BME280;69035;54.392;18.574;2023-04-25T00:30:54;99947.66;;;14.04;76.29
57074;BME280;69035;54.392;18.574;2023-04-25T00:33:23;99942.63;;;13.98;76.48
57074;BME280;69035;54.392;18.574;2023-04-25T00:35:52;99943.66;;;13.94;76.60
57074;BME280;69035;54.392;18.574;2023-04-25T00:38:20;99946.16;;;13.97;76.66
57074;BME280;69035;54.392;18.574;2023-04-25T00:40:50;99947.50;;;13.85;78.88
57074;BME280;69035;54.392;18.574;2023-04-25T00:43:21;99950.88;;;13.89;76.91
57074;BME280;69035;54.392;18.574;2023-04-25T00:45:50;99941.19;;;13.89;76.56
57074;BME280;69035;54.392;18.574;2023-04-25T00:48:22;99950.81;;;13.90;76.76
57074;BME280;69035;54.392;18.574;2023-04-25T00:50:52;99950.75;;;13.92;76.43
57074;BME280;69035;54.392;18.574;2023-04-25T00:53:22;99944.72;;;13.88;76.63
57074;BME280;69035;54.392;18.574;2023-04-25T00:55:52;99949.78;;;13.94;76.93
57074;BME280;69035;54.392;18.574;2023-04-25T00:58:22;99952.41;;;13.94;76.48
57074;BME280;69035;54.392;18.574;2023-04-25T01:00:52;99949.00;;;13.92;76.44
57074;BME280;69035;54.392;18.574;2023-04-25T01:03:21;99954.22;;;13.94;76.64
57074;BME280;69035;54.392;18.574;2023-04-25T01:05:51;99952.59;;;13.90;76.70
57074;BME280;69035;54.392;18.574;2023-04-25T01:08:21;99955.19;;;13.91;76.74
57074;BME280;69035;54.392;18.574;2023-04-25T01:10:52;99950.88;;;13.89;77.03
57074;BME280;69035;54.392;18.574;2023-04-25T01:13:22;99953.50;;;13.89;76.99
57074;BME280;69035;54.392;18.574;2023-04-25T01:15:52;99950.91;;;13.87;77.15
57074;BME280;69035;54.392;18.574;2023-04-25T01:18:20;99954.44;;;13.88;77.26
57074;BME280;69035;54.392;18.574;2023-04-25T01:20:51;99956.25;;;13.86;77.31
57074;BME280;69035;54.392;18.574;2023-04-25T01:23:22;99955.41;;;13.85;77.02
57074;BME280;69035;54.392;18.574;2023-04-25T01:25:52;99957.19;;;13.85;77.25
57074;BME280;69035;54.392;18.574;2023-04-25T01:28:22;99952.72;;;13.87;77.31
57074;BME280;69035;54.392;18.574;2023-04-25T01:30:51;99957.22;;;13.83;77.37
57074;BME280;69035;54.392;18.574;2023-04-25T01:33:21;99957.19;;;13.85;77.29
57074;BME280;69035;54.392;18.574;2023-04-25T01:35:51;99958.13;;;13.84;77.31
57074;BME280;69035;54.392;18.574;2023-04-25T01:38:21;99960.06;;;13.78;77.92
57074;BME280;69035;54.392;18.574;2023-04-25T01:40:51;99958.50;;;13.73;77.51
57074;BME280;69035;54.392;18.574;2023-04-25T01:43:21;99966.34;;;13.74;78.30
57074;BME280;69035;54.392;18.574;2023-04-25T01:45:50;99964.59;;;13.75;77.98
57074;BME280;69035;54.392;18.574;2023-04-25T01:48:19;99963.72;;;13.74;77.86
57074;BME280;69035;54.392;18.574;2023-04-25T01:50:48;99962.81;;;13.75;77.91
57074;BME280;69035;54.392;18.574;2023-04-25T01:53:17;99964.59;;;13.75;77.91
57074;BME280;69035;54.392;18.574;2023-04-25T01:55:47;99971.63;;;13.74;78.05
57074;BME280;69035;54.392;18.574;2023-04-25T01:58:18;99970.78;;;13.74;78.32
57074;BME280;69035;54.392;18.574;2023-04-25T02:01:08;99975.22;;;13.73;78.33
57074;BME280;69035;54.392;18.574;2023-04-25T02:03:43;99968.09;;;13.75;77.99
57074;BME280;69035;54.392;18.574;2023-04-25T02:06:27;99976.06;;;13.74;78.14
57074;BME280;69035;54.392;18.574;2023-04-25T02:08:57;99970.00;;;13.72;78.47
57074;BME280;69035;54.392;18.574;2023-04-25T02:11:27;99969.16;;;13.70;78.68
57074;BME280;69035;54.392;18.574;2023-04-25T02:14:16;99978.78;;;13.72;78.26
57074;BME280;69035;54.392;18.574;2023-04-25T02:16:54;99984.06;;;13.72;78.37
57074;BME280;69035;54.392;18.574;2023-04-25T02:19:24;99984.09;;;13.71;78.47
57074;BME280;69035;54.392;18.574;2023-04-25T02:21:53;99980.63;;;13.69;78.62
57074;BME280;69035;54.392;18.574;2023-04-25T02:24:22;99978.06;;;13.67;78.74
57074;BME280;69035;54.392;18.574;2023-04-25T02:26:53;99983.34;;;13.67;78.84
57074;BME280;69035;54.392;18.574;2023-04-25T02:29:23;99982.50;;;13.67;78.75
57074;BME280;69035;54.392;18.574;2023-04-25T02:31:52;99979.78;;;13.68;78.60
57074;BME280;69035;54.392;18.574;2023-04-25T02:34:21;99978.94;;;13.68;78.44
57074;BME280;69035;54.392;18.574;2023-04-25T02:36:50;99982.38;;;13.70;78.20
57074;BME280;69035;54.392;18.574;2023-04-25T02:39:18;99978.81;;;13.71;78.27
57074;BME280;69035;54.392;18.574;2023-04-25T02:41:49;99984.16;;;13.69;78.34
57074;BME280;69035;54.392;18.574;2023-04-25T02:44:19;99983.41;;;13.66;78.59
57074;BME280;69035;54.392;18.574;2023-04-25T02:46:48;99984.34;;;13.65;78.83
57074;BME280;69035;54.392;18.574;2023-04-25T02:49:16;99981.75;;;13.63;78.43
57074;BME280;69035;54.392;18.574;2023-04-25T02:51:45;99975.69;;;13.59;78.85
57074;BME280;69035;54.392;18.574;2023-04-25T02:54:14;99980.03;;;13.62;78.48
57074;BME280;69035;54.392;18.574;2023-04-25T02:56:46;99978.41;;;13.58;78.50
57074;BME280;69035;54.392;18.574;2023-04-25T02:59:23;99974.03;;;13.57;78.97
57074;BME280;69035;54.392;18.574;2023-04-25T03:01:52;99981.16;;;13.55;79.04
57074;BME280;69035;54.392;18.574;2023-04-25T03:04:21;99976.94;;;13.49;79.17
57074;BME280;69035;54.392;18.574;2023-04-25T03:06:51;99977.75;;;13.51;79.11
57074;BME280;69035;54.392;18.574;2023-04-25T03:09:21;99978.69;;;13.50;78.94
57074;BME280;69035;54.392;18.574;2023-04-25T03:11:51;99976.88;;;13.51;78.86
57074;BME280;69035;54.392;18.574;2023-04-25T03:14:25;99973.41;;;13.50;79.19
57074;BME280;69035;54.392;18.574;2023-04-25T03:16:54;99977.78;;;13.50;79.00
57074;BME280;69035;54.392;18.574;2023-04-25T03:19:23;99978.75;;;13.49;78.97
57074;BME280;69035;54.392;18.574;2023-04-25T03:21:52;99976.22;;;13.46;78.94
57074;BME280;69035;54.392;18.574;2023-04-25T03:24:21;99985.16;;;13.41;79.42
57074;BME280;69035;54.392;18.574;2023-04-25T03:26:50;99985.19;;;13.40;79.15
57074;BME280;69035;54.392;18.574;2023-04-25T03:29:18;99979.81;;;13.43;79.12
57074;BME280;69035;54.392;18.574;2023-04-25T03:31:53;99973.69;;;13.41;78.96
57074;BME280;69035;54.392;18.574;2023-04-25T03:34:22;99984.25;;;13.41;79.00
57074;BME280;69035;54.392;18.574;2023-04-25T03:36:51;99988.75;;;13.39;79.25
57074;BME280;69035;54.392;18.574;2023-04-25T03:39:21;100004.22;;;13.23;77.74
57074;BME280;69035;54.392;18.574;2023-04-25T03:41:52;100000.53;;;13.00;77.09
57074;BME280;69035;54.392;18.574;2023-04-25T03:44:21;100008.94;;;12.86;76.21
57074;BME280;69035;54.392;18.574;2023-04-25T03:46:53;100003.44;;;12.66;75.79
57074;BME280;69035;54.392;18.574;2023-04-25T03:49:22;100004.72;;;12.52;75.76
57074;BME280;69035;54.392;18.574;2023-04-25T03:51:58;100010.25;;;12.43;75.92
57074;BME280;69035;54.392;18.574;2023-04-25T03:54:30;100009.59;;;12.36;76.03
57074;BME280;69035;54.392;18.574;2023-04-25T03:57:05;100008.16;;;12.26;75.70
57074;BME280;69035;54.392;18.574;2023-04-25T03:59:37;100022.19;;;12.27;75.52
57074;BME280;69035;54.392;18.574;2023-04-25T04:02:11;100017.34;;;12.11;75.35
57074;BME280;69035;54.392;18.574;2023-04-25T04:04:40;100013.16;;;12.04;75.47
57074;BME280;69035;54.392;18.574;2023-04-25T04:07:12;100017.75;;;11.97;74.90
57074;BME280;69035;54.392;18.574;2023-04-25T04:09:43;100024.00;;;11.93;75.08
57074;BME280;69035;54.392;18.574;2023-04-25T04:12:18;100028.72;;;11.80;73.74
57074;BME280;69035;54.392;18.574;2023-04-25T04:14:46;100020.09;;;11.75;74.34
57074;BME280;69035;54.392;18.574;2023-04-25T04:17:17;100028.97;;;11.71;74.02
57074;BME280;69035;54.392;18.574;2023-04-25T04:19:45;100019.50;;;11.64;74.51
57074;BME280;69035;54.392;18.574;2023-04-25T04:22:18;100035.47;;;11.58;73.77
57074;BME280;69035;54.392;18.574;2023-04-25T04:24:47;100018.25;;;11.44;74.01
57074;BME280;69035;54.392;18.574;2023-04-25T04:27:29;100020.81;;;11.47;74.96
57074;BME280;69035;54.392;18.574;2023-04-25T04:30:15;100027.16;;;11.39;74.04
57074;BME280;69035;54.392;18.574;2023-04-25T04:32:58;100022.78;;;11.39;74.46
57074;BME280;69035;54.392;18.574;2023-04-25T04:35:29;100021.13;;;11.35;73.55
57074;BME280;69035;54.392;18.574;2023-04-25T04:38:05;100033.53;;;11.31;74.12
57074;BME280;69035;54.392;18.574;2023-04-25T04:40:35;100031.06;;;11.24;74.07
57074;BME280;69035;54.392;18.574;2023-04-25T04:43:33;100039.06;;;11.19;75.08
57074;BME280;69035;54.392;18.574;2023-04-25T04:46:14;100045.16;;;11.21;74.73
57074;BME280;69035;54.392;18.574;2023-04-25T04:49:08;100026.75;;;11.21;74.94
57074;BME280;69035;54.392;18.574;2023-04-25T04:51:55;100032.19;;;11.13;74.65
57074;BME280;69035;54.392;18.574;2023-04-25T04:54:46;100033.00;;;11.17;75.12
57074;BME280;69035;54.392;18.574;2023-04-25T04:57:34;100040.78;;;11.22;74.70
57074;BME280;69035;54.392;18.574;2023-04-25T05:00:29;100034.47;;;11.29;74.33
57074;BME280;69035;54.392;18.574;2023-04-25T05:03:31;100042.50;;;11.23;74.79
57074;BME280;69035;54.392;18.574;2023-04-25T05:06:03;100040.81;;;11.20;74.91
57074;BME280;69035;54.392;18.574;2023-04-25T05:09:07;100041.63;;;11.22;74.38
57074;BME280;69035;54.392;18.574;2023-04-25T05:12:00;100027.78;;;11.15;74.13
57074;BME280;69035;54.392;18.574;2023-04-25T05:14:47;100036.31;;;11.24;74.11
57074;BME280;69035;54.392;18.574;2023-04-25T05:17:52;100032.75;;;11.26;73.68
57074;BME280;69035;54.392;18.574;2023-04-25T05:20:20;100037.25;;;11.23;72.58
57074;BME280;69035;54.392;18.574;2023-04-25T05:23:10;100046.69;;;11.30;72.33
57074;BME280;69035;54.392;18.574;2023-04-25T05:25:52;100043.19;;;11.29;72.79
57074;BME280;69035;54.392;18.574;2023-04-25T05:28:53;100049.34;;;11.28;73.03
57074;BME280;69035;54.392;18.574;2023-04-25T05:31:44;100041.41;;;11.31;71.98
57074;BME280;69035;54.392;18.574;2023-04-25T05:34:15;100041.34;;;11.34;71.64
57074;BME280;69035;54.392;18.574;2023-04-25T05:36:51;100054.31;;;11.41;71.80
57074;BME280;69035;54.392;18.574;2023-04-25T05:39:21;100070.16;;;11.39;71.93
57074;BME280;69035;54.392;18.574;2023-04-25T05:42:16;100074.44;;;11.43;72.70
57074;BME280;69035;54.392;18.574;2023-04-25T05:44:45;100068.16;;;11.47;71.46
57074;BME280;69035;54.392;18.574;2023-04-25T05:47:37;100068.00;;;11.55;71.93
57074;BME280;69035;54.392;18.574;2023-04-25T05:50:11;100067.84;;;11.61;71.66
57074;BME280;69035;54.392;18.574;2023-04-25T05:52:50;100083.72;;;11.58;70.70
57074;BME280;69035;54.392;18.574;2023-04-25T05:55:42;100081.13;;;11.57;70.56
57074;BME280;69035;54.392;18.574;2023-04-25T05:58:23;100054.97;;;11.50;70.41
57074;BME280;69035;54.392;18.574;2023-04-25T06:00:54;100082.47;;;11.72;70.17
57074;BME280;69035;54.392;18.574;2023-04-25T06:03:22;100086.88;;;11.71;70.44
57074;BME280;69035;54.392;18.574;2023-04-25T06:05:52;100082.56;;;11.68;69.21
57074;BME280;69035;54.392;18.574;2023-04-25T06:08:22;100081.63;;;11.71;69.02
57074;BME280;69035;54.392;18.574;2023-04-25T06:10:52;100092.19;;;11.69;68.89
57074;BME280;69035;54.392;18.574;2023-04-25T06:13:22;100086.22;;;11.63;68.85
57074;BME280;69035;54.392;18.574;2023-04-25T06:15:51;100095.00;;;11.62;68.60
57074;BME280;69035;54.392;18.574;2023-04-25T06:18:19;100087.19;;;11.59;67.87
57074;BME280;69035;54.392;18.574;2023-04-25T06:20:49;100097.16;;;11.46;68.02
57074;BME280;69035;54.392;18.574;2023-04-25T06:23:18;100097.31;;;11.40;68.04
57074;BME280;69035;54.392;18.574;2023-04-25T06:25:55;100093.72;;;11.44;67.74
57074;BME280;69035;54.392;18.574;2023-04-25T06:28:24;100096.44;;;11.41;68.21
57074;BME280;69035;54.392;18.574;2023-04-25T06:30:53;100095.78;;;11.31;67.46
57074;BME280;69035;54.392;18.574;2023-04-25T06:33:22;100102.72;;;11.33;68.28
57074;BME280;69035;54.392;18.574;2023-04-25T06:35:53;100097.78;;;11.20;68.43
57074;BME280;69035;54.392;18.574;2023-04-25T06:38:25;100108.50;;;11.12;68.25
57074;BME280;69035;54.392;18.574;2023-04-25T06:40:57;100107.84;;;11.02;69.34
57074;BME280;69035;54.392;18.574;2023-04-25T06:43:29;100099.31;;;10.92;68.83
57074;BME280;69035;54.392;18.574;2023-04-25T06:46:23;100099.22;;;10.97;69.45
57074;BME280;69035;54.392;18.574;2023-04-25T06:48:54;100107.78;;;11.05;69.36
57074;BME280;69035;54.392;18.574;2023-04-25T06:51:23;100110.22;;;11.14;69.05
57074;BME280;69035;54.392;18.574;2023-04-25T06:53:55;100105.66;;;11.21;69.33
57074;BME280;69035;54.392;18.574;2023-04-25T06:56:32;100105.59;;;11.24;67.91
57074;BME280;69035;54.392;18.574;2023-04-25T06:59:20;100108.94;;;11.31;68.33
57074;BME280;69035;54.392;18.574;2023-04-25T07:01:50;100105.28;;;11.37;67.30
57074;BME280;69035;54.392;18.574;2023-04-25T07:04:24;100108.50;;;11.49;67.71
57074;BME280;69035;54.392;18.574;2023-04-25T07:06:56;100112.78;;;11.54;67.84
57074;BME280;69035;54.392;18.574;2023-04-25T07:09:48;100112.91;;;11.49;66.45
57074;BME280;69035;54.392;18.574;2023-04-25T07:12:19;100114.19;;;11.31;66.21
57074;BME280;69035;54.392;18.574;2023-04-25T07:14:47;100117.09;;;11.20;66.30
57074;BME280;69035;54.392;18.574;2023-04-25T07:17:16;100121.41;;;11.23;67.06
57074;BME280;69035;54.392;18.574;2023-04-25T07:19:45;100123.75;;;11.35;67.33
57074;BME280;69035;54.392;18.574;2023-04-25T07:22:14;100128.03;;;11.39;66.78
57074;BME280;69035;54.392;18.574;2023-04-25T07:24:42;100128.78;;;11.44;66.42
57074;BME280;69035;54.392;18.574;2023-04-25T07:27:19;100132.25;;;11.46;65.59
57074;BME280;69035;54.392;18.574;2023-04-25T07:30:06;100138.41;;;11.45;66.13
57074;BME280;69035;54.392;18.574;2023-04-25T07:32:38;100141.13;;;11.42;65.85
57074;BME280;69035;54.392;18.574;2023-04-25T07:35:08;100134.88;;;11.46;66.17
57074;BME280;69035;54.392;18.574;2023-04-25T07:37:37;100141.72;;;11.54;66.02
57074;BME280;69035;54.392;18.574;2023-04-25T07:40:12;100142.56;;;11.54;64.95
57074;BME280;69035;54.392;18.574;2023-04-25T07:42:51;100154.75;;;11.58;65.24
57074;BME280;69035;54.392;18.574;2023-04-25T07:45:36;100149.38;;;11.63;65.49
57074;BME280;69035;54.392;18.574;2023-04-25T07:48:05;100159.91;;;11.63;64.53
57074;BME280;69035;54.392;18.574;2023-04-25T07:50:36;100165.09;;;11.66;64.65
57074;BME280;69035;54.392;18.574;2023-04-25T07:53:05;100156.34;;;11.65;63.69
57074;BME280;69035;54.392;18.574;2023-04-25T07:55:42;100159.13;;;11.59;63.82
57074;BME280;69035;54.392;18.574;2023-04-25T07:58:17;100157.25;;;11.64;63.59
57074;BME280;69035;54.392;18.574;2023-04-25T08:00:52;100157.88;;;11.74;63.35
57074;BME280;69035;54.392;18.574;2023-04-25T08:03:45;100165.53;;;11.83;63.41
57074;BME280;69035;54.392;18.574;2023-04-25T08:22:44;100179.91;;;13.00;58.09
57074;BME280;69035;54.392;18.574;2023-04-25T08:25:51;100179.53;;;12.83;59.81
57074;BME280;69035;54.392;18.574;2023-04-25T08:28:24;100182.31;;;12.78;59.59
57074;BME280;69035;54.392;18.574;2023-04-25T08:30:55;100181.09;;;12.90;59.51
57074;BME280;69035;54.392;18.574;2023-04-25T08:33:26;100182.53;;;13.02;59.70
57074;BME280;69035;54.392;18.574;2023-04-25T08:36:17;100174.69;;;12.99;59.37
57074;BME280;69035;54.392;18.574;2023-04-25T08:39:05;100181.28;;;13.14;59.39
57074;BME280;69035;54.392;18.574;2023-04-25T08:41:44;100186.63;;;13.12;59.09
57074;BME280;69035;54.392;18.574;2023-04-25T08:44:13;100190.25;;;13.08;59.05
57074;BME280;69035;54.392;18.574;2023-04-25T08:46:46;100197.38;;;13.04;59.02
57074;BME280;69035;54.392;18.574;2023-04-25T08:49:31;100204.34;;;13.07;59.14
57074;BME280;69035;54.392;18.574;2023-04-25T08:52:01;100202.50;;;13.09;58.70
57074;BME280;69035;54.392;18.574;2023-04-25T08:54:37;100206.28;;;13.00;58.78
57074;BME280;69035;54.392;18.574;2023-04-25T08:57:08;100200.25;;;12.97;58.99
57074;BME280;69035;54.392;18.574;2023-04-25T08:59:37;100209.13;;;12.94;59.01
57074;BME280;69035;54.392;18.574;2023-04-25T09:02:10;100207.84;;;13.07;58.62
57074;BME280;69035;54.392;18.574;2023-04-25T09:04:43;100217.41;;;13.12;58.82
57074;BME280;69035;54.392;18.574;2023-04-25T09:07:13;100209.13;;;13.24;58.63
57074;BME280;69035;54.392;18.574;2023-04-25T09:09:47;100202.75;;;13.31;58.16
57074;BME280;69035;54.392;18.574;2023-04-25T09:12:21;100203.06;;;13.20;57.85
57074;BME280;69035;54.392;18.574;2023-04-25T09:15:04;100225.53;;;13.35;58.08
57074;BME280;69035;54.392;18.574;2023-04-25T09:17:55;100220.53;;;13.24;57.92
57074;BME280;69035;54.392;18.574;2023-04-25T09:20:29;100231.81;;;13.30;58.54
57074;BME280;69035;54.392;18.574;2023-04-25T09:23:02;100224.81;;;13.29;58.15
57074;BME280;69035;54.392;18.574;2023-04-25T09:25:36;100234.41;;;13.31;58.43
57074;BME280;69035;54.392;18.574;2023-04-25T09:28:08;100237.75;;;13.38;58.10
57074;BME280;69035;54.392;18.574;2023-04-25T09:30:37;100216.78;;;13.32;58.47
57074;BME280;69035;54.392;18.574;2023-04-25T09:33:13;100236.69;;;13.43;58.15
57074;BME280;69035;54.392;18.574;2023-04-25T09:35:46;100236.78;;;13.40;57.93
57074;BME280;69035;54.392;18.574;2023-04-25T09:38:30;100241.97;;;13.43;57.59
57074;BME280;69035;54.392;18.574;2023-04-25T09:41:09;100240.06;;;13.49;57.56
57074;BME280;69035;54.392;18.574;2023-04-25T09:43:45;100244.47;;;13.48;57.44
57074;BME280;69035;54.392;18.574;2023-04-25T09:46:14;100244.72;;;13.40;57.31
57074;BME280;69035;54.392;18.574;2023-04-25T09:48:50;100241.88;;;13.47;57.67
57074;BME280;69035;54.392;18.574;2023-04-25T09:51:31;100245.97;;;13.57;57.51
57074;BME280;69035;54.392;18.574;2023-04-25T09:54:01;100241.47;;;13.60;57.38
57074;BME280;69035;54.392;18.574;2023-04-25T09:56:41;100250.81;;;13.71;57.17
57074;BME280;69035;54.392;18.574;2023-04-25T09:59:11;100248.03;;;13.75;56.60
57074;BME280;69035;54.392;18.574;2023-04-25T10:01:40;100249.44;;;13.86;56.68
57074;BME280;69035;54.392;18.574;2023-04-25T10:04:20;100245.69;;;13.93;55.88
57074;BME280;69035;54.392;18.574;2023-04-25T10:41:48;100275.44;;;13.43;56.31
57074;BME280;69035;54.392;18.574;2023-04-25T10:44:20;100286.41;;;13.28;57.53
57074;BME280;69035;54.392;18.574;2023-04-25T10:46:49;100282.16;;;13.22;58.00
57074;BME280;69035;54.392;18.574;2023-04-25T10:49:32;100285.84;;;13.18;58.39
57074;BME280;69035;54.392;18.574;2023-04-25T10:52:18;100288.47;;;13.18;57.47
57074;BME280;69035;54.392;18.574;2023-04-25T10:54:48;100289.97;;;13.27;57.84
57074;BME280;69035;54.392;18.574;2023-04-25T11:00:11;100286.03;;;13.41;57.13
57074;BME280;69035;54.392;18.574;2023-04-25T11:02:41;100295.06;;;13.63;57.18
57074;BME280;69035;54.392;18.574;2023-04-25T11:05:22;100289.63;;;13.67;56.05
57074;BME280;69035;54.392;18.574;2023-04-25T11:07:52;100288.63;;;13.71;56.06
57074;BME280;69035;54.392;18.574;2023-04-25T11:10:28;100292.66;;;13.83;56.22
57074;BME280;69035;54.392;18.574;2023-04-25T11:12:57;100293.19;;;13.94;55.96
57074;BME280;69035;54.392;18.574;2023-04-25T11:15:28;100292.03;;;14.03;55.69
57074;BME280;69035;54.392;18.574;2023-04-25T11:17:57;100292.50;;;13.89;55.13
57074;BME280;69035;54.392;18.574;2023-04-25T11:20:26;100289.97;;;13.86;55.30
57074;BME280;69035;54.392;18.574;2023-04-25T11:22:57;100292.41;;;13.92;55.75
57074;BME280;69035;54.392;18.574;2023-04-25T11:25:27;100297.31;;;14.03;55.60
57074;BME280;69035;54.392;18.574;2023-04-25T11:27:58;100300.78;;;14.05;55.43
57074;BME280;69035;54.392;18.574;2023-04-25T11:30:30;100299.38;;;13.93;55.90
57074;BME280;69035;54.392;18.574;2023-04-25T11:32:59;100305.66;;;13.91;55.92
57074;BME280;69035;54.392;18.574;2023-04-25T11:35:27;100294.94;;;13.95;55.26
57074;BME280;69035;54.392;18.574;2023-04-25T11:37:56;100301.97;;;13.97;55.09
57074;BME280;69035;54.392;18.574;2023-04-25T11:40:25;100308.16;;;13.95;55.04
57074;BME280;69035;54.392;18.574;2023-04-25T11:42:54;100307.34;;;13.92;55.12
57074;BME280;69035;54.392;18.574;2023-04-25T11:45:23;100304.97;;;13.84;54.91
57074;BME280;69035;54.392;18.574;2023-04-25T11:47:53;100313.00;;;13.81;54.76
57074;BME280;69035;54.392;18.574;2023-04-25T11:50:22;100308.66;;;13.78;54.94
57074;BME280;69035;54.392;18.574;2023-04-25T11:52:56;100320.97;;;13.80;54.60
57074;BME280;69035;54.392;18.574;2023-04-25T11:55:25;100313.47;;;13.66;54.68
57074;BME280;69035;54.392;18.574;2023-04-25T11:57:53;100315.66;;;13.51;54.65
57074;BME280;69035;54.392;18.574;2023-04-25T12:00:23;100324.22;;;13.59;54.72
57074;BME280;69035;54.392;18.574;2023-04-25T12:02:54;100315.03;;;13.43;52.89
57074;BME280;69035;54.392;18.574;2023-04-25T12:05:24;100313.34;;;13.40;54.38
57074;BME280;69035;54.392;18.574;2023-04-25T12:08:12;100316.69;;;13.47;53.74
57074;BME280;69035;54.392;18.574;2023-04-25T12:10:43;100325.06;;;13.60;54.17
57074;BME280;69035;54.392;18.574;2023-04-25T12:13:19;100318.75;;;13.66;53.17
57074;BME280;69035;54.392;18.574;2023-04-25T12:15:48;100314.44;;;13.63;53.58
57074;BME280;69035;54.392;18.574;2023-04-25T12:18:20;100321.47;;;13.63;53.20
57074;BME280;69035;54.392;18.574;2023-04-25T12:20:50;100320.16;;;13.48;53.53
57074;BME280;69035;54.392;18.574;2023-04-25T12:23:25;100323.50;;;13.54;53.82
57074;BME280;69035;54.392;18.574;2023-04-25T12:25:56;100326.09;;;13.56;54.04
57074;BME280;69035;54.392;18.574;2023-04-25T12:28:25;100335.00;;;13.52;54.07
57074;BME280;69035;54.392;18.574;2023-04-25T12:30:57;100327.84;;;13.55;53.62
57074;BME280;69035;54.392;18.574;2023-04-25T12:33:28;100331.38;;;13.56;53.85
57074;BME280;69035;54.392;18.574;2023-04-25T12:35:59;100331.50;;;13.51;54.56
57074;BME280;69035;54.392;18.574;2023-04-25T12:38:36;100328.78;;;13.54;54.83
57074;BME280;69035;54.392;18.574;2023-04-25T12:41:06;100332.63;;;13.44;55.62
57074;BME280;69035;54.392;18.574;2023-04-25T12:43:34;100336.25;;;13.40;55.27
57074;BME280;69035;54.392;18.574;2023-04-25T12:46:05;100342.47;;;13.37;55.57
57074;BME280;69035;54.392;18.574;2023-04-25T12:48:35;100338.09;;;13.36;55.57
57074;BME280;69035;54.392;18.574;2023-04-25T12:51:05;100339.94;;;13.33;55.70
57074;BME280;69035;54.392;18.574;2023-04-25T12:53:34;100340.38;;;13.17;56.19
57074;BME280;69035;54.392;18.574;2023-04-25T12:56:05;100339.47;;;13.18;56.49
57074;BME280;69035;54.392;18.574;2023-04-25T12:58:34;100332.50;;;13.16;57.15
57074;BME280;69035;54.392;18.574;2023-04-25T13:01:03;100334.94;;;13.22;57.08
57074;BME280;69035;54.392;18.574;2023-04-25T13:03:32;100337.44;;;13.28;57.03
57074;BME280;69035;54.392;18.574;2023-04-25T13:06:03;100335.13;;;13.16;57.16
57074;BME280;69035;54.392;18.574;2023-04-25T13:08:32;100329.56;;;13.25;57.44
57074;BME280;69035;54.392;18.574;2023-04-25T13:11:02;100333.75;;;13.35;57.48
57074;BME280;69035;54.392;18.574;2023-04-25T13:13:31;100338.19;;;13.32;57.55
57074;BME280;69035;54.392;18.574;2023-04-25T13:16:02;100332.84;;;13.35;57.43
57074;BME280;69035;54.392;18.574;2023-04-25T13:18:31;100346.75;;;13.41;57.37
57074;BME280;69035;54.392;18.574;2023-04-25T13:21:00;100336.78;;;13.51;57.71
57074;BME280;69035;54.392;18.574;2023-04-25T13:23:30;100329.41;;;13.63;57.54
57074;BME280;69035;54.392;18.574;2023-04-25T13:25:59;100331.63;;;13.76;57.24
57074;BME280;69035;54.392;18.574;2023-04-25T13:28:28;100347.78;;;13.95;57.03
57074;BME280;69035;54.392;18.574;2023-04-25T13:30:57;100336.69;;;14.12;56.41
57074;BME280;69035;54.392;18.574;2023-04-25T13:33:26;100334.03;;;14.12;56.31
57074;BME280;69035;54.392;18.574;2023-04-25T13:35:55;100331.03;;;14.23;56.40
57074;BME280;69035;54.392;18.574;2023-04-25T13:38:24;100330.44;;;14.42;56.02
57074;BME280;69035;54.392;18.574;2023-04-25T13:40:55;100317.38;;;14.64;55.60
57074;BME280;69035;54.392;18.574;2023-04-25T13:43:23;100325.41;;;14.86;55.30
57074;BME280;69035;54.392;18.574;2023-04-25T13:45:52;100318.56;;;15.06;55.34
57074;BME280;69035;54.392;18.574;2023-04-25T13:48:21;100320.00;;;15.14;55.14
57074;BME280;69035;54.392;18.574;2023-04-25T13:50:50;100320.63;;;15.21;55.41
57074;BME280;69035;54.392;18.574;2023-04-25T13:53:20;100327.81;;;15.18;55.60
57074;BME280;69035;54.392;18.574;2023-04-25T13:55:49;100326.31;;;15.10;55.38
57074;BME280;69035;54.392;18.574;2023-04-25T13:58:19;100329.69;;;14.90;55.50
57074;BME280;69035;54.392;18.574;2023-04-25T14:00:48;100321.13;;;14.82;55.51
57074;BME280;69035;54.392;18.574;2023-04-25T14:03:17;100328.09;;;14.85;56.19
57074;BME280;69035;54.392;18.574;2023-04-25T14:05:47;100332.00;;;14.74;56.55
57074;BME280;69035;54.392;18.574;2023-04-25T14:08:16;100330.09;;;14.51;57.92